sensor_id;sensor_type;location;lat;lon;timestamp;P1;durP1;ratioP1;P2;durP2;ratioP2
18647;SDS011;9453;50.294;18.644;2023-12-22T05:01:18;0.77;;;0.40;;
18647;SDS011;9453;50.294;18.644;2023-12-22T05:03:46;0.90;;;0.40;;
18647;SDS011;9453;50.294;18.644;2023-12-22T05:06:12;1.10;;;0.30;;
18647;SDS011;9453;50.294;18.644;2023-12-22T05:08:39;0.43;;;0.40;;
18647;SDS011;9453;50.294;18.644;2023-12-22T05:11:07;0.63;;;0.40;;
18647;SDS011;9453;50.294;18.644;2023-12-22T05:13:34;2.77;;;0.77;;
18647;SDS011;9453;50.294;18.644;2023-12-22T05:16:01;2.17;;;0.83;;
18647;SDS011;9453;50.294;18.644;2023-12-22T05:18:43;1.73;;;0.80;;
18647;SDS011;9453;50.294;18.644;2023-12-22T05:21:11;3.30;;;0.93;;
18647;SDS011;9453;50.294;18.644;2023-12-22T05:23:39;7.83;;;1.07;;
18647;SDS011;9453;50.294;18.644;2023-12-22T05:26:06;3.67;;;1.10;;
18647;SDS011;9453;50.294;18.644;2023-12-22T05:28:33;1.43;;;0.60;;
18647;SDS011;9453;50.294;18.644;2023-12-22T05:31:00;3.23;;;0.97;;
18647;SDS011;9453;50.294;18.644;2023-12-22T05:33:30;4.83;;;1.20;;
18647;SDS011;9453;50.294;18.644;2023-12-22T05:35:58;2.73;;;1.13;;
18647;SDS011;9453;50.294;18.644;2023-12-22T05:38:25;5.47;;;1.20;;
18647;SDS011;9453;50.294;18.644;2023-12-22T05:40:52;5.43;;;1.10;;
18647;SDS011;9453;50.294;18.644;2023-12-22T05:43:19;2.30;;;0.90;;
18647;SDS011;9453;50.294;18.644;2023-12-22T05:45:46;3.77;;;1.07;;
18647;SDS011;9453;50.294;18.644;2023-12-22T05:48:13;8.30;;;1.43;;
18647;SDS011;9453;50.294;18.644;2023-12-22T05:50:39;1.60;;;0.80;;
18647;SDS011;9453;50.294;18.644;2023-12-22T05:53:08;3.87;;;1.30;;
18647;SDS011;9453;50.294;18.644;2023-12-22T05:55:36;16.53;;;1.60;;
18647;SDS011;9453;50.294;18.644;2023-12-22T05:58:03;3.63;;;1.07;;
18647;SDS011;9453;50.294;18.644;2023-12-22T06:00:31;6.60;;;1.23;;
18647;SDS011;9453;50.294;18.644;2023-12-22T06:02:58;6.30;;;1.20;;
18647;SDS011;9453;50.294;18.644;2023-12-22T06:05:26;5.17;;;1.13;;
18647;SDS011;9453;50.294;18.644;2023-12-22T06:07:53;3.00;;;1.10;;
18647;SDS011;9453;50.294;18.644;2023-12-22T06:10:22;3.80;;;1.20;;
18647;SDS011;9453;50.294;18.644;2023-12-22T06:12:49;6.27;;;1.13;;
18647;SDS011;9453;50.294;18.644;2023-12-22T06:15:16;7.50;;;1.50;;
18647;SDS011;9453;50.294;18.644;2023-12-22T06:17:42;7.17;;;1.50;;
18647;SDS011;9453;50.294;18.644;2023-12-22T06:20:11;10.40;;;1.53;;
18647;SDS011;9453;50.294;18.644;2023-12-22T06:22:38;7.20;;;1.40;;
18647;SDS011;9453;50.294;18.644;2023-12-22T06:25:05;6.53;;;1.50;;
18647;SDS011;9453;50.294;18.644;2023-12-22T06:27:37;6.13;;;1.80;;
18647;SDS011;9453;50.294;18.644;2023-12-22T06:30:05;7.93;;;2.30;;
18647;SDS011;9453;50.294;18.644;2023-12-22T06:32:34;15.60;;;2.53;;
18647;SDS011;9453;50.294;18.644;2023-12-22T06:35:05;8.40;;;2.50;;
18647;SDS011;9453;50.294;18.644;2023-12-22T06:37:32;10.63;;;3.00;;
18647;SDS011;9453;50.294;18.644;2023-12-22T06:40:00;9.37;;;2.63;;
18647;SDS011;9453;50.294;18.644;2023-12-22T06:42:27;20.43;;;2.87;;
18647;SDS011;9453;50.294;18.644;2023-12-22T06:44:56;14.63;;;2.97;;
18647;SDS011;9453;50.294;18.644;2023-12-22T06:47:23;17.23;;;4.17;;
18647;SDS011;9453;50.294;18.644;2023-12-22T06:49:53;21.40;;;4.23;;
18647;SDS011;9453;50.294;18.644;2023-12-22T06:52:20;23.00;;;4.90;;
18647;SDS011;9453;50.294;18.644;2023-12-22T06:54:47;15.53;;;4.00;;
18647;SDS011;9453;50.294;18.644;2023-12-22T06:57:14;15.40;;;4.10;;
18647;SDS011;9453;50.294;18.644;2023-12-22T06:59:41;18.80;;;5.13;;
18647;SDS011;9453;50.294;18.644;2023-12-22T07:02:10;20.83;;;5.30;;
18647;SDS011;9453;50.294;18.644;2023-12-22T07:07:32;22.70;;;5.20;;
18647;SDS011;9453;50.294;18.644;2023-12-22T07:09:59;20.47;;;5.20;;
18647;SDS011;9453;50.294;18.644;2023-12-22T07:12:27;19.30;;;4.93;;
18647;SDS011;9453;50.294;18.644;2023-12-22T07:14:54;18.33;;;4.43;;
18647;SDS011;9453;50.294;18.644;2023-12-22T07:17:22;16.13;;;4.63;;
18647;SDS011;9453;50.294;18.644;2023-12-22T07:19:49;8.40;;;3.20;;
18647;SDS011;9453;50.294;18.644;2023-12-22T07:22:17;15.40;;;4.00;;
18647;SDS011;9453;50.294;18.644;2023-12-22T07:24:44;12.00;;;3.40;;
18647;SDS011;9453;50.294;18.644;2023-12-22T07:27:12;9.47;;;2.93;;
18647;SDS011;9453;50.294;18.644;2023-12-22T07:29:42;12.67;;;2.77;;
18647;SDS011;9453;50.294;18.644;2023-12-22T07:32:09;15.50;;;3.27;;
18647;SDS011;9453;50.294;18.644;2023-12-22T07:34:39;10.13;;;3.23;;
18647;SDS011;9453;50.294;18.644;2023-12-22T07:37:06;15.77;;;3.17;;
18647;SDS011;9453;50.294;18.644;2023-12-22T07:39:33;22.10;;;3.47;;
18647;SDS011;9453;50.294;18.644;2023-12-22T07:42:00;10.60;;;3.73;;
18647;SDS011;9453;50.294;18.644;2023-12-22T07:44:27;17.33;;;3.57;;
18647;SDS011;9453;50.294;18.644;2023-12-22T07:46:57;10.47;;;2.97;;
18647;SDS011;9453;50.294;18.644;2023-12-22T07:49:24;8.00;;;2.47;;
18647;SDS011;9453;50.294;18.644;2023-12-22T07:51:53;8.67;;;2.67;;
18647;SDS011;9453;50.294;18.644;2023-12-22T07:54:20;12.33;;;3.40;;
18647;SDS011;9453;50.294;18.644;2023-12-22T07:56:47;9.83;;;3.33;;
18647;SDS011;9453;50.294;18.644;2023-12-22T07:59:14;11.00;;;2.83;;
18647;SDS011;9453;50.294;18.644;2023-12-22T08:01:41;5.33;;;1.77;;
18647;SDS011;9453;50.294;18.644;2023-12-22T08:04:08;5.43;;;1.70;;
18647;SDS011;9453;50.294;18.644;2023-12-22T08:06:35;10.10;;;2.00;;
18647;SDS011;9453;50.294;18.644;2023-12-22T08:09:05;4.90;;;1.90;;
18647;SDS011;9453;50.294;18.644;2023-12-22T08:11:32;5.20;;;1.60;;
18647;SDS011;9453;50.294;18.644;2023-12-22T08:13:59;4.23;;;1.47;;
18647;SDS011;9453;50.294;18.644;2023-12-22T08:16:26;9.27;;;1.53;;
18647;SDS011;9453;50.294;18.644;2023-12-22T08:18:53;5.60;;;1.10;;
18647;SDS011;9453;50.294;18.644;2023-12-22T08:21:20;6.37;;;1.67;;
18647;SDS011;9453;50.294;18.644;2023-12-22T08:23:47;6.27;;;0.90;;
18647;SDS011;9453;50.294;18.644;2023-12-22T08:26:16;4.83;;;1.00;;
18647;SDS011;9453;50.294;18.644;2023-12-22T08:28:44;2.30;;;0.73;;
18647;SDS011;9453;50.294;18.644;2023-12-22T08:31:12;5.80;;;1.13;;
18647;SDS011;9453;50.294;18.644;2023-12-22T08:33:39;1.20;;;0.60;;
18647;SDS011;9453;50.294;18.644;2023-12-22T08:36:08;1.70;;;0.70;;
18647;SDS011;9453;50.294;18.644;2023-12-22T08:38:35;2.90;;;1.13;;
18647;SDS011;9453;50.294;18.644;2023-12-22T08:41:05;4.47;;;1.00;;
18647;SDS011;9453;50.294;18.644;2023-12-22T08:43:34;4.93;;;1.00;;
18647;SDS011;9453;50.294;18.644;2023-12-22T08:46:03;4.90;;;1.40;;
18647;SDS011;9453;50.294;18.644;2023-12-22T08:48:30;3.63;;;1.10;;
18647;SDS011;9453;50.294;18.644;2023-12-22T08:50:57;5.37;;;1.50;;
18647;SDS011;9453;50.294;18.644;2023-12-22T08:53:24;3.87;;;1.13;;
18647;SDS011;9453;50.294;18.644;2023-12-22T08:55:55;2.87;;;1.33;;
18647;SDS011;9453;50.294;18.644;2023-12-22T08:58:22;4.93;;;1.07;;
18647;SDS011;9453;50.294;18.644;2023-12-22T09:00:50;2.77;;;0.90;;
18647;SDS011;9453;50.294;18.644;2023-12-22T09:03:17;3.73;;;1.13;;
18647;SDS011;9453;50.294;18.644;2023-12-22T09:05:44;3.10;;;1.03;;
18647;SDS011;9453;50.294;18.644;2023-12-22T09:08:12;4.30;;;1.43;;
18647;SDS011;9453;50.294;18.644;2023-12-22T09:10:39;2.07;;;1.30;;
18647;SDS011;9453;50.294;18.644;2023-12-22T09:13:06;8.03;;;1.90;;
18647;SDS011;9453;50.294;18.644;2023-12-22T09:15:33;3.70;;;1.40;;
18647;SDS011;9453;50.294;18.644;2023-12-22T09:18:02;7.10;;;1.90;;
18647;SDS011;9453;50.294;18.644;2023-12-22T09:20:30;4.40;;;1.67;;
18647;SDS011;9453;50.294;18.644;2023-12-22T09:22:56;5.50;;;2.60;;
18647;SDS011;9453;50.294;18.644;2023-12-22T09:25:23;7.57;;;2.50;;
18647;SDS011;9453;50.294;18.644;2023-12-22T09:27:51;8.30;;;2.40;;
18647;SDS011;9453;50.294;18.644;2023-12-22T09:30:18;6.00;;;2.17;;
18647;SDS011;9453;50.294;18.644;2023-12-22T09:32:46;6.30;;;2.30;;
18647;SDS011;9453;50.294;18.644;2023-12-22T09:35:15;6.10;;;1.73;;
18647;SDS011;9453;50.294;18.644;2023-12-22T09:37:42;3.83;;;1.23;;
18647;SDS011;9453;50.294;18.644;2023-12-22T09:40:10;5.07;;;1.80;;
18647;SDS011;9453;50.294;18.644;2023-12-22T09:42:38;2.80;;;1.07;;
18647;SDS011;9453;50.294;18.644;2023-12-22T09:45:09;4.30;;;1.60;;
18647;SDS011;9453;50.294;18.644;2023-12-22T09:47:38;4.77;;;1.30;;
18647;SDS011;9453;50.294;18.644;2023-12-22T09:50:07;4.20;;;1.20;;
18647;SDS011;9453;50.294;18.644;2023-12-22T09:52:37;6.40;;;1.30;;
18647;SDS011;9453;50.294;18.644;2023-12-22T09:55:06;2.90;;;1.20;;
18647;SDS011;9453;50.294;18.644;2023-12-22T09:57:35;6.73;;;1.20;;
18647;SDS011;9453;50.294;18.644;2023-12-22T10:00:03;6.07;;;1.77;;
18647;SDS011;9453;50.294;18.644;2023-12-22T10:02:33;5.20;;;1.50;;
18647;SDS011;9453;50.294;18.644;2023-12-22T10:05:02;5.60;;;1.57;;
18647;SDS011;9453;50.294;18.644;2023-12-22T10:07:29;4.47;;;1.60;;
18647;SDS011;9453;50.294;18.644;2023-12-22T10:10:00;5.07;;;1.57;;
18647;SDS011;9453;50.294;18.644;2023-12-22T10:12:27;3.93;;;1.00;;
18647;SDS011;9453;50.294;18.644;2023-12-22T10:14:56;3.33;;;1.23;;
18647;SDS011;9453;50.294;18.644;2023-12-22T10:17:27;6.67;;;1.30;;
18647;SDS011;9453;50.294;18.644;2023-12-22T10:19:54;4.60;;;1.57;;
18647;SDS011;9453;50.294;18.644;2023-12-22T10:22:21;5.00;;;1.37;;
18647;SDS011;9453;50.294;18.644;2023-12-22T10:24:49;4.00;;;1.13;;
18647;SDS011;9453;50.294;18.644;2023-12-22T10:27:18;3.90;;;1.30;;
18647;SDS011;9453;50.294;18.644;2023-12-22T10:32:15;4.83;;;1.40;;
18647;SDS011;9453;50.294;18.644;2023-12-22T10:34:43;3.60;;;1.07;;
18647;SDS011;9453;50.294;18.644;2023-12-22T10:37:10;4.20;;;0.63;;
18647;SDS011;9453;50.294;18.644;2023-12-22T10:39:38;5.00;;;0.90;;
18647;SDS011;9453;50.294;18.644;2023-12-22T10:42:05;4.03;;;0.87;;
18647;SDS011;9453;50.294;18.644;2023-12-22T10:44:34;5.63;;;0.80;;
18647;SDS011;9453;50.294;18.644;2023-12-22T10:47:05;3.23;;;0.83;;
18647;SDS011;9453;50.294;18.644;2023-12-22T10:49:32;3.87;;;1.00;;
18647;SDS011;9453;50.294;18.644;2023-12-22T10:52:00;5.30;;;0.80;;
18647;SDS011;9453;50.294;18.644;2023-12-22T10:54:27;1.20;;;0.80;;
18647;SDS011;9453;50.294;18.644;2023-12-22T10:56:54;1.83;;;0.80;;
18647;SDS011;9453;50.294;18.644;2023-12-22T10:59:24;6.23;;;0.83;;
18647;SDS011;9453;50.294;18.644;2023-12-22T11:01:58;2.80;;;0.80;;
18647;SDS011;9453;50.294;18.644;2023-12-22T11:04:29;1.93;;;0.60;;
18647;SDS011;9453;50.294;18.644;2023-12-22T11:06:58;5.00;;;0.80;;
18647;SDS011;9453;50.294;18.644;2023-12-22T11:09:30;3.90;;;0.93;;
18647;SDS011;9453;50.294;18.644;2023-12-22T11:11:58;4.80;;;1.60;;
18647;SDS011;9453;50.294;18.644;2023-12-22T11:14:27;5.70;;;1.60;;
18647;SDS011;9453;50.294;18.644;2023-12-22T11:16:58;4.50;;;1.70;;
18647;SDS011;9453;50.294;18.644;2023-12-22T11:19:26;6.03;;;1.27;;
18647;SDS011;9453;50.294;18.644;2023-12-22T11:21:54;4.73;;;1.20;;
18647;SDS011;9453;50.294;18.644;2023-12-22T11:24:24;7.20;;;1.50;;
18647;SDS011;9453;50.294;18.644;2023-12-22T11:26:52;5.60;;;1.53;;
18647;SDS011;9453;50.294;18.644;2023-12-22T11:29:20;3.17;;;1.30;;
18647;SDS011;9453;50.294;18.644;2023-12-22T11:31:50;5.43;;;1.23;;
18647;SDS011;9453;50.294;18.644;2023-12-22T11:34:22;4.00;;;1.07;;
18647;SDS011;9453;50.294;18.644;2023-12-22T11:36:52;3.67;;;1.17;;
18647;SDS011;9453;50.294;18.644;2023-12-22T11:39:20;2.13;;;1.00;;
18647;SDS011;9453;50.294;18.644;2023-12-22T11:41:48;4.63;;;1.20;;
18647;SDS011;9453;50.294;18.644;2023-12-22T11:44:17;4.57;;;1.30;;
18647;SDS011;9453;50.294;18.644;2023-12-22T11:46:44;3.70;;;1.10;;
18647;SDS011;9453;50.294;18.644;2023-12-22T11:49:12;7.70;;;1.40;;
18647;SDS011;9453;50.294;18.644;2023-12-22T11:51:41;8.00;;;1.10;;
18647;SDS011;9453;50.294;18.644;2023-12-22T11:57:12;5.83;;;0.87;;
18647;SDS011;9453;50.294;18.644;2023-12-22T11:59:56;3.33;;;1.00;;
18647;SDS011;9453;50.294;18.644;2023-12-22T12:02:24;3.47;;;1.20;;
18647;SDS011;9453;50.294;18.644;2023-12-22T12:04:52;2.67;;;1.00;;
18647;SDS011;9453;50.294;18.644;2023-12-22T12:10:09;3.67;;;1.00;;
18647;SDS011;9453;50.294;18.644;2023-12-22T12:12:36;4.80;;;1.03;;
18647;SDS011;9453;50.294;18.644;2023-12-22T12:15:08;3.37;;;0.97;;
18647;SDS011;9453;50.294;18.644;2023-12-22T12:17:40;2.37;;;1.00;;
18647;SDS011;9453;50.294;18.644;2023-12-22T12:20:09;4.30;;;1.07;;
18647;SDS011;9453;50.294;18.644;2023-12-22T12:22:36;7.33;;;1.40;;
18647;SDS011;9453;50.294;18.644;2023-12-22T12:25:08;3.57;;;0.87;;
18647;SDS011;9453;50.294;18.644;2023-12-22T12:27:37;3.93;;;0.97;;
18647;SDS011;9453;50.294;18.644;2023-12-22T12:30:09;3.03;;;0.90;;
18647;SDS011;9453;50.294;18.644;2023-12-22T12:32:39;2.97;;;1.27;;
18647;SDS011;9453;50.294;18.644;2023-12-22T12:35:09;3.90;;;0.97;;
18647;SDS011;9453;50.294;18.644;2023-12-22T12:37:36;4.63;;;1.13;;
18647;SDS011;9453;50.294;18.644;2023-12-22T12:40:04;2.07;;;0.70;;
18647;SDS011;9453;50.294;18.644;2023-12-22T12:42:37;4.00;;;1.30;;
18647;SDS011;9453;50.294;18.644;2023-12-22T12:45:04;5.63;;;1.37;;
18647;SDS011;9453;50.294;18.644;2023-12-22T12:47:32;6.80;;;1.20;;
18647;SDS011;9453;50.294;18.644;2023-12-22T12:49:59;3.90;;;1.30;;
18647;SDS011;9453;50.294;18.644;2023-12-22T12:52:26;2.80;;;1.10;;
18647;SDS011;9453;50.294;18.644;2023-12-22T12:54:53;7.00;;;1.13;;
18647;SDS011;9453;50.294;18.644;2023-12-22T12:57:24;3.23;;;1.10;;
18647;SDS011;9453;50.294;18.644;2023-12-22T12:59:52;5.27;;;1.40;;
18647;SDS011;9453;50.294;18.644;2023-12-22T13:02:19;7.30;;;1.10;;
18647;SDS011;9453;50.294;18.644;2023-12-22T13:04:47;3.80;;;1.03;;
18647;SDS011;9453;50.294;18.644;2023-12-22T13:07:23;2.97;;;1.07;;
18647;SDS011;9453;50.294;18.644;2023-12-22T13:09:51;2.80;;;0.77;;
18647;SDS011;9453;50.294;18.644;2023-12-22T13:12:19;4.50;;;0.83;;
18647;SDS011;9453;50.294;18.644;2023-12-22T13:14:47;3.73;;;0.87;;
18647;SDS011;9453;50.294;18.644;2023-12-22T13:17:16;1.70;;;0.77;;
18647;SDS011;9453;50.294;18.644;2023-12-22T13:19:43;3.73;;;1.20;;
18647;SDS011;9453;50.294;18.644;2023-12-22T13:22:10;5.37;;;0.93;;
18647;SDS011;9453;50.294;18.644;2023-12-22T13:24:37;2.40;;;0.77;;
18647;SDS011;9453;50.294;18.644;2023-12-22T13:27:04;2.40;;;0.90;;
18647;SDS011;9453;50.294;18.644;2023-12-22T13:29:41;6.20;;;1.00;;
18647;SDS011;9453;50.294;18.644;2023-12-22T13:32:15;3.33;;;1.03;;
18647;SDS011;9453;50.294;18.644;2023-12-22T13:34:47;4.77;;;1.10;;
18647;SDS011;9453;50.294;18.644;2023-12-22T13:37:15;2.73;;;0.83;;
18647;SDS011;9453;50.294;18.644;2023-12-22T13:39:42;3.93;;;0.80;;
18647;SDS011;9453;50.294;18.644;2023-12-22T13:42:19;2.43;;;0.93;;
18647;SDS011;9453;50.294;18.644;2023-12-22T13:44:47;5.33;;;1.03;;
18647;SDS011;9453;50.294;18.644;2023-12-22T13:47:16;2.27;;;0.90;;
18647;SDS011;9453;50.294;18.644;2023-12-22T13:49:43;6.30;;;0.83;;
18647;SDS011;9453;50.294;18.644;2023-12-22T13:52:29;3.10;;;0.90;;
18647;SDS011;9453;50.294;18.644;2023-12-22T13:54:59;6.07;;;1.10;;
18647;SDS011;9453;50.294;18.644;2023-12-22T13:57:27;7.40;;;0.87;;
18647;SDS011;9453;50.294;18.644;2023-12-22T13:59:55;5.40;;;0.87;;
18647;SDS011;9453;50.294;18.644;2023-12-22T14:02:23;5.80;;;1.00;;
18647;SDS011;9453;50.294;18.644;2023-12-22T14:04:50;4.00;;;1.10;;
18647;SDS011;9453;50.294;18.644;2023-12-22T14:07:17;3.43;;;1.20;;
18647;SDS011;9453;50.294;18.644;2023-12-22T14:09:44;3.67;;;0.90;;
18647;SDS011;9453;50.294;18.644;2023-12-22T14:12:14;5.33;;;1.17;;
18647;SDS011;9453;50.294;18.644;2023-12-22T14:14:41;7.30;;;1.20;;
18647;SDS011;9453;50.294;18.644;2023-12-22T14:17:08;7.40;;;1.00;;
18647;SDS011;9453;50.294;18.644;2023-12-22T14:19:36;2.53;;;0.73;;
18647;SDS011;9453;50.294;18.644;2023-12-22T14:22:03;4.27;;;1.27;;
18647;SDS011;9453;50.294;18.644;2023-12-22T14:24:30;2.30;;;0.93;;
18647;SDS011;9453;50.294;18.644;2023-12-22T14:26:57;4.53;;;1.03;;
18647;SDS011;9453;50.294;18.644;2023-12-22T14:29:24;8.03;;;1.23;;
18647;SDS011;9453;50.294;18.644;2023-12-22T14:31:51;6.03;;;0.97;;
18647;SDS011;9453;50.294;18.644;2023-12-22T14:34:18;4.93;;;1.17;;
18647;SDS011;9453;50.294;18.644;2023-12-22T14:36:46;3.97;;;1.00;;
18647;SDS011;9453;50.294;18.644;2023-12-22T14:39:13;9.10;;;1.23;;
18647;SDS011;9453;50.294;18.644;2023-12-22T14:41:40;4.13;;;1.27;;
18647;SDS011;9453;50.294;18.644;2023-12-22T14:44:07;5.17;;;1.50;;
18647;SDS011;9453;50.294;18.644;2023-12-22T14:46:38;3.43;;;1.10;;
18647;SDS011;9453;50.294;18.644;2023-12-22T14:49:05;3.47;;;1.20;;
18647;SDS011;9453;50.294;18.644;2023-12-22T14:51:35;3.03;;;1.40;;
18647;SDS011;9453;50.294;18.644;2023-12-22T14:54:04;5.97;;;1.13;;
18647;SDS011;9453;50.294;18.644;2023-12-22T14:56:31;3.63;;;1.30;;
18647;SDS011;9453;50.294;18.644;2023-12-22T14:58:59;5.90;;;1.30;;
18647;SDS011;9453;50.294;18.644;2023-12-22T15:01:26;7.07;;;1.53;;
18647;SDS011;9453;50.294;18.644;2023-12-22T15:03:53;3.27;;;1.10;;
18647;SDS011;9453;50.294;18.644;2023-12-22T15:06:20;5.37;;;0.90;;
18647;SDS011;9453;50.294;18.644;2023-12-22T15:08:47;14.70;;;1.70;;
18647;SDS011;9453;50.294;18.644;2023-12-22T15:11:16;8.20;;;1.13;;
18647;SDS011;9453;50.294;18.644;2023-12-22T15:13:42;4.40;;;0.93;;
18647;SDS011;9453;50.294;18.644;2023-12-22T15:16:10;4.60;;;0.93;;
18647;SDS011;9453;50.294;18.644;2023-12-22T15:18:37;6.20;;;1.20;;
18647;SDS011;9453;50.294;18.644;2023-12-22T15:21:04;5.43;;;1.03;;
18647;SDS011;9453;50.294;18.644;2023-12-22T15:23:31;4.67;;;1.20;;
18647;SDS011;9453;50.294;18.644;2023-12-22T15:25:59;3.40;;;1.10;;
18647;SDS011;9453;50.294;18.644;2023-12-22T15:28:27;2.30;;;0.90;;
18647;SDS011;9453;50.294;18.644;2023-12-22T15:30:55;3.43;;;0.90;;
18647;SDS011;9453;50.294;18.644;2023-12-22T15:33:21;5.63;;;1.30;;
18647;SDS011;9453;50.294;18.644;2023-12-22T15:35:53;5.10;;;0.80;;
18647;SDS011;9453;50.294;18.644;2023-12-22T15:38:21;2.23;;;1.20;;
18647;SDS011;9453;50.294;18.644;2023-12-22T15:40:48;7.50;;;1.30;;
18647;SDS011;9453;50.294;18.644;2023-12-22T15:43:15;7.50;;;1.20;;
18647;SDS011;9453;50.294;18.644;2023-12-22T15:45:43;3.77;;;0.90;;
18647;SDS011;9453;50.294;18.644;2023-12-22T15:48:10;10.33;;;1.50;;
18647;SDS011;9453;50.294;18.644;2023-12-22T15:50:40;4.93;;;1.10;;
18647;SDS011;9453;50.294;18.644;2023-12-22T15:53:07;4.73;;;1.40;;
18647;SDS011;9453;50.294;18.644;2023-12-22T15:55:34;7.47;;;1.47;;
18647;SDS011;9453;50.294;18.644;2023-12-22T15:58:00;3.33;;;1.13;;
18647;SDS011;9453;50.294;18.644;2023-12-22T16:00:28;4.53;;;0.73;;
18647;SDS011;9453;50.294;18.644;2023-12-22T16:02:56;6.73;;;1.50;;
18647;SDS011;9453;50.294;18.644;2023-12-22T16:05:23;4.57;;;0.87;;
18647;SDS011;9453;50.294;18.644;2023-12-22T16:07:50;4.00;;;1.60;;
18647;SDS011;9453;50.294;18.644;2023-12-22T16:10:17;6.43;;;2.63;;
18647;SDS011;9453;50.294;18.644;2023-12-22T16:12:44;13.10;;;2.93;;
18647;SDS011;9453;50.294;18.644;2023-12-22T16:15:11;16.83;;;4.87;;
18647;SDS011;9453;50.294;18.644;2023-12-22T16:17:38;11.33;;;3.87;;
18647;SDS011;9453;50.294;18.644;2023-12-22T16:20:07;15.43;;;4.17;;
18647;SDS011;9453;50.294;18.644;2023-12-22T16:22:36;16.63;;;4.97;;
18647;SDS011;9453;50.294;18.644;2023-12-22T16:25:03;23.53;;;5.07;;
18647;SDS011;9453;50.294;18.644;2023-12-22T16:27:31;16.30;;;4.00;;
18647;SDS011;9453;50.294;18.644;2023-12-22T16:29:58;17.70;;;5.17;;
18647;SDS011;9453;50.294;18.644;2023-12-22T16:32:25;17.03;;;3.73;;
18647;SDS011;9453;50.294;18.644;2023-12-22T16:34:52;8.17;;;2.47;;
18647;SDS011;9453;50.294;18.644;2023-12-22T16:37:20;11.60;;;3.27;;
18647;SDS011;9453;50.294;18.644;2023-12-22T16:39:48;5.97;;;1.77;;
18647;SDS011;9453;50.294;18.644;2023-12-22T16:42:16;9.30;;;2.87;;
18647;SDS011;9453;50.294;18.644;2023-12-22T16:44:43;4.67;;;1.87;;
18647;SDS011;9453;50.294;18.644;2023-12-22T16:47:12;5.90;;;1.90;;
18647;SDS011;9453;50.294;18.644;2023-12-22T16:49:39;7.83;;;1.57;;
18647;SDS011;9453;50.294;18.644;2023-12-22T16:52:08;6.40;;;1.87;;
18647;SDS011;9453;50.294;18.644;2023-12-22T16:54:37;8.53;;;1.30;;
18647;SDS011;9453;50.294;18.644;2023-12-22T16:57:04;4.90;;;1.43;;
18647;SDS011;9453;50.294;18.644;2023-12-22T16:59:32;3.60;;;1.10;;
18647;SDS011;9453;50.294;18.644;2023-12-22T17:01:59;5.53;;;2.23;;
18647;SDS011;9453;50.294;18.644;2023-12-22T17:04:27;7.57;;;1.70;;
18647;SDS011;9453;50.294;18.644;2023-12-22T17:06:54;8.10;;;1.90;;
18647;SDS011;9453;50.294;18.644;2023-12-22T17:09:21;3.43;;;1.70;;
18647;SDS011;9453;50.294;18.644;2023-12-22T17:11:50;5.63;;;1.73;;
18647;SDS011;9453;50.294;18.644;2023-12-22T17:14:17;3.33;;;1.57;;
18647;SDS011;9453;50.294;18.644;2023-12-22T17:16:46;6.23;;;1.30;;
18647;SDS011;9453;50.294;18.644;2023-12-22T17:19:13;16.13;;;1.70;;
18647;SDS011;9453;50.294;18.644;2023-12-22T17:21:39;7.50;;;1.50;;
18647;SDS011;9453;50.294;18.644;2023-12-22T17:24:07;6.77;;;2.00;;
18647;SDS011;9453;50.294;18.644;2023-12-22T17:26:34;3.97;;;1.43;;
18647;SDS011;9453;50.294;18.644;2023-12-22T17:29:03;5.47;;;1.77;;
18647;SDS011;9453;50.294;18.644;2023-12-22T17:31:31;11.50;;;2.20;;
18647;SDS011;9453;50.294;18.644;2023-12-22T17:33:58;9.50;;;2.57;;
18647;SDS011;9453;50.294;18.644;2023-12-22T17:36:25;13.40;;;2.77;;
18647;SDS011;9453;50.294;18.644;2023-12-22T17:38:56;6.70;;;2.50;;
18647;SDS011;9453;50.294;18.644;2023-12-22T17:41:23;8.70;;;1.83;;
18647;SDS011;9453;50.294;18.644;2023-12-22T17:43:50;10.57;;;2.00;;
18647;SDS011;9453;50.294;18.644;2023-12-22T17:46:18;11.30;;;2.20;;
18647;SDS011;9453;50.294;18.644;2023-12-22T17:48:45;4.27;;;1.70;;
18647;SDS011;9453;50.294;18.644;2023-12-22T17:51:12;8.93;;;2.43;;
18647;SDS011;9453;50.294;18.644;2023-12-22T17:53:39;15.53;;;2.07;;
18647;SDS011;9453;50.294;18.644;2023-12-22T17:56:07;11.90;;;1.83;;
18647;SDS011;9453;50.294;18.644;2023-12-22T17:58:34;9.77;;;2.80;;
18647;SDS011;9453;50.294;18.644;2023-12-22T18:01:01;5.53;;;2.20;;
18647;SDS011;9453;50.294;18.644;2023-12-22T18:03:29;13.40;;;1.87;;
18647;SDS011;9453;50.294;18.644;2023-12-22T18:05:56;7.47;;;2.03;;
18647;SDS011;9453;50.294;18.644;2023-12-22T18:08:23;4.57;;;1.70;;
18647;SDS011;9453;50.294;18.644;2023-12-22T18:10:50;8.17;;;1.60;;
18647;SDS011;9453;50.294;18.644;2023-12-22T18:13:17;7.13;;;2.17;;
18647;SDS011;9453;50.294;18.644;2023-12-22T18:15:44;9.03;;;2.07;;
18647;SDS011;9453;50.294;18.644;2023-12-22T18:18:12;8.87;;;2.00;;
18647;SDS011;9453;50.294;18.644;2023-12-22T18:20:40;6.30;;;1.83;;
18647;SDS011;9453;50.294;18.644;2023-12-22T18:23:07;4.77;;;1.40;;
18647;SDS011;9453;50.294;18.644;2023-12-22T18:25:34;7.23;;;1.90;;
18647;SDS011;9453;50.294;18.644;2023-12-22T18:28:03;4.27;;;1.30;;
18647;SDS011;9453;50.294;18.644;2023-12-22T18:30:30;10.63;;;1.87;;
18647;SDS011;9453;50.294;18.644;2023-12-22T18:32:57;7.00;;;1.77;;
18647;SDS011;9453;50.294;18.644;2023-12-22T18:35:24;5.23;;;1.80;;
18647;SDS011;9453;50.294;18.644;2023-12-22T18:37:54;6.80;;;1.87;;
18647;SDS011;9453;50.294;18.644;2023-12-22T18:40:21;5.57;;;1.93;;
18647;SDS011;9453;50.294;18.644;2023-12-22T18:42:48;6.13;;;1.63;;
18647;SDS011;9453;50.294;18.644;2023-12-22T18:45:15;7.17;;;1.83;;
18647;SDS011;9453;50.294;18.644;2023-12-22T18:47:41;5.87;;;1.50;;
18647;SDS011;9453;50.294;18.644;2023-12-22T18:50:09;10.07;;;1.80;;
18647;SDS011;9453;50.294;18.644;2023-12-22T18:52:36;6.03;;;2.03;;
18647;SDS011;9453;50.294;18.644;2023-12-22T18:55:05;5.47;;;1.50;;
18647;SDS011;9453;50.294;18.644;2023-12-22T18:57:32;5.73;;;1.50;;
18647;SDS011;9453;50.294;18.644;2023-12-22T18:59:59;6.57;;;1.60;;
18647;SDS011;9453;50.294;18.644;2023-12-22T19:02:26;9.13;;;1.87;;
18647;SDS011;9453;50.294;18.644;2023-12-22T19:04:53;10.27;;;2.20;;
18647;SDS011;9453;50.294;18.644;2023-12-22T19:07:21;7.20;;;1.93;;
18647;SDS011;9453;50.294;18.644;2023-12-22T19:09:48;25.67;;;2.03;;
18647;SDS011;9453;50.294;18.644;2023-12-22T19:12:16;4.93;;;1.27;;
18647;SDS011;9453;50.294;18.644;2023-12-22T19:14:43;6.47;;;1.50;;
18647;SDS011;9453;50.294;18.644;2023-12-22T19:17:10;6.53;;;1.67;;
18647;SDS011;9453;50.294;18.644;2023-12-22T19:19:37;4.40;;;1.40;;
18647;SDS011;9453;50.294;18.644;2023-12-22T19:22:04;7.30;;;1.70;;
18647;SDS011;9453;50.294;18.644;2023-12-22T19:24:31;6.13;;;2.03;;
18647;SDS011;9453;50.294;18.644;2023-12-22T19:26:58;5.17;;;1.67;;
18647;SDS011;9453;50.294;18.644;2023-12-22T19:29:26;4.03;;;1.57;;
18647;SDS011;9453;50.294;18.644;2023-12-22T19:31:53;9.47;;;2.57;;
18647;SDS011;9453;50.294;18.644;2023-12-22T19:34:21;12.17;;;2.90;;
18647;SDS011;9453;50.294;18.644;2023-12-22T19:36:47;10.93;;;2.47;;
18647;SDS011;9453;50.294;18.644;2023-12-22T19:39:15;9.33;;;2.70;;
18647;SDS011;9453;50.294;18.644;2023-12-22T19:41:41;12.27;;;2.47;;
18647;SDS011;9453;50.294;18.644;2023-12-22T19:44:09;7.83;;;2.80;;
18647;SDS011;9453;50.294;18.644;2023-12-22T19:46:37;12.57;;;3.43;;
18647;SDS011;9453;50.294;18.644;2023-12-22T19:49:04;4.03;;;2.00;;
18647;SDS011;9453;50.294;18.644;2023-12-22T19:51:31;6.43;;;1.70;;
18647;SDS011;9453;50.294;18.644;2023-12-22T19:53:59;9.03;;;2.20;;
18647;SDS011;9453;50.294;18.644;2023-12-22T19:56:26;7.73;;;1.63;;
18647;SDS011;9453;50.294;18.644;2023-12-22T19:58:53;7.23;;;1.50;;
18647;SDS011;9453;50.294;18.644;2023-12-22T20:01:20;8.73;;;1.93;;